createdAt,value
2019-02-02T00:00:54.524Z,74.27
2019-02-02T00:01:33.381Z,74.22
2019-02-02T00:02:15.070Z,74.21
2019-02-02T00:02:51.288Z,74.16
2019-02-02T00:03:29.154Z,74.14
2019-02-02T00:04:05.434Z,74.16
2019-02-02T00:04:41.574Z,74.17
2019-02-02T00:05:17.794Z,74.23
2019-02-02T00:05:54.043Z,74.23
2019-02-02T00:06:30.209Z,74.25
2019-02-02T00:07:06.467Z,74.26
2019-02-02T00:07:42.604Z,74.27
2019-02-02T00:08:18.578Z,74.25
2019-02-02T00:08:54.615Z,74.22
2019-02-02T00:09:30.670Z,74.21
2019-02-02T00:10:07.173Z,74.20
2019-02-02T00:10:43.170Z,74.20
2019-02-02T00:11:19.335Z,74.23
2019-02-02T00:11:55.395Z,74.24
2019-02-02T00:12:31.563Z,74.21
2019-02-02T00:13:07.716Z,73.99
2019-02-02T00:13:43.659Z,74.05
2019-02-02T00:14:19.904Z,74.05
2019-02-02T00:14:55.784Z,73.85
2019-02-02T00:15:31.838Z,73.85
2019-02-02T00:16:08.203Z,73.79
2019-02-02T00:16:44.302Z,73.51
2019-02-02T00:17:20.625Z,73.51
2019-02-02T00:17:56.879Z,73.61
2019-02-02T00:18:33.081Z,73.54
2019-02-02T00:19:09.174Z,73.52
2019-02-02T00:19:45.733Z,73.49
2019-02-02T00:20:21.801Z,73.53
2019-02-02T00:20:57.930Z,73.53
2019-02-02T00:21:33.996Z,73.53
2019-02-02T00:22:09.960Z,73.19
2019-02-02T00:22:45.995Z,73.19
2019-02-02T00:23:22.165Z,73.47
2019-02-02T00:23:58.311Z,73.47
2019-02-02T00:24:34.464Z,73.45
2019-02-02T00:25:10.629Z,73.47
2019-02-02T00:25:46.663Z,73.49
2019-02-02T00:26:22.643Z,73.46
2019-02-02T00:26:58.586Z,73.65
2019-02-02T00:27:41.474Z,73.65
2019-02-02T00:28:12.638Z,73.45
2019-02-02T00:28:48.679Z,73.46
2019-02-02T00:29:24.768Z,73.48
2019-02-02T00:30:00.917Z,73.48
2019-02-02T00:30:37.109Z,73.06
2019-02-02T00:31:13.190Z,72.99
2019-02-02T00:31:49.357Z,72.88
2019-02-02T00:32:25.448Z,72.88
2019-02-02T00:33:01.681Z,72.77
2019-02-02T00:33:37.809Z,72.73
2019-02-02T00:34:14.026Z,72.86
2019-02-02T00:34:50.040Z,72.86
2019-02-02T00:35:26.184Z,72.64
2019-02-02T00:36:03.860Z,72.53
2019-02-02T00:36:39.947Z,72.35
2019-02-02T00:37:16.114Z,72.13
2019-02-02T00:37:52.072Z,71.89
2019-02-02T00:38:28.094Z,71.70
2019-02-02T00:39:04.821Z,71.61
2019-02-02T00:39:41.050Z,71.51
2019-02-02T00:40:17.297Z,71.49
2019-02-02T00:40:53.609Z,71.46
2019-02-02T00:41:29.880Z,71.39
2019-02-02T00:42:06.036Z,71.31
2019-02-02T00:42:42.053Z,71.39
2019-02-02T00:43:18.081Z,71.39
2019-02-02T00:43:54.308Z,71.05
2019-02-02T00:44:30.270Z,71.05
2019-02-02T00:45:07.485Z,71.19
2019-02-02T00:45:43.541Z,70.88
2019-02-02T00:46:19.714Z,70.88
2019-02-02T00:46:56.030Z,71.57
2019-02-02T00:47:32.316Z,71.58
2019-02-02T00:48:08.334Z,70.80
2019-02-02T00:48:44.547Z,70.84
2019-02-02T00:49:20.514Z,70.82
2019-02-02T00:49:56.437Z,70.25
2019-02-02T00:50:32.455Z,70.76
2019-02-02T00:51:08.730Z,70.30
2019-02-02T00:51:44.788Z,70.30
2019-02-02T00:52:20.749Z,70.41
2019-02-02T00:52:56.939Z,70.41
2019-02-02T00:53:32.882Z,69.92
2019-02-02T00:54:08.906Z,69.92
2019-02-02T00:54:45.041Z,70.40
2019-02-02T00:55:21.264Z,69.64
2019-02-02T00:55:57.270Z,69.64
2019-02-02T00:56:33.302Z,69.87
2019-02-02T00:57:09.348Z,69.87
2019-02-02T00:57:53.074Z,69.86
2019-02-02T00:58:23.294Z,69.86
2019-02-02T00:58:59.371Z,69.60
2019-02-02T00:59:35.437Z,69.54
2019-02-02T01:00:13.825Z,69.43
2019-02-02T01:00:49.958Z,68.96
2019-02-02T01:01:25.965Z,69.10
2019-02-02T01:02:02.299Z,68.88
2019-02-02T01:02:38.502Z,68.88
2019-02-02T01:03:14.753Z,68.86
2019-02-02T01:03:50.822Z,68.25
2019-02-02T01:04:27.177Z,68.22
2019-02-02T01:05:03.229Z,68.22
2019-02-02T01:05:39.370Z,68.09
2019-02-02T01:06:15.473Z,68.09
2019-02-02T01:06:51.694Z,67.97
2019-02-02T01:07:27.839Z,67.97
2019-02-02T01:08:03.944Z,68.36
2019-02-02T01:08:40.295Z,68.24
2019-02-02T01:09:26.664Z,68.64
2019-02-02T01:10:02.874Z,68.64
2019-02-02T01:10:39.287Z,67.50
2019-02-02T01:11:15.524Z,67.11
2019-02-02T01:11:51.620Z,67.25
2019-02-02T01:12:27.594Z,67.25
2019-02-02T01:13:03.979Z,67.14
2019-02-02T01:13:40.035Z,66.56
2019-02-02T01:14:16.209Z,66.56
2019-02-02T01:14:52.312Z,66.81
2019-02-02T01:15:28.511Z,66.81
2019-02-02T01:16:04.553Z,66.73
2019-02-02T01:16:40.667Z,66.89
2019-02-02T01:17:16.718Z,66.89
2019-02-02T01:17:52.813Z,66.32
2019-02-02T01:18:29.081Z,66.32
2019-02-02T01:19:05.280Z,66.84
2019-02-02T01:19:41.274Z,66.84
2019-02-02T01:20:17.885Z,66.06
2019-02-02T01:20:53.952Z,66.06
2019-02-02T01:21:30.326Z,66.31
2019-02-02T01:22:06.687Z,66.21
2019-02-02T01:22:42.814Z,66.18
2019-02-02T01:23:18.997Z,66.15
2019-02-02T01:23:55.392Z,66.05
2019-02-02T01:24:31.422Z,66.03
2019-02-02T01:25:07.936Z,66.01
2019-02-02T01:25:44.225Z,65.98
2019-02-02T01:26:20.278Z,66.48
2019-02-02T01:26:56.417Z,66.48
2019-02-02T01:27:32.666Z,65.90
2019-02-02T01:28:08.846Z,65.80
2019-02-02T01:28:45.011Z,65.72
2019-02-02T01:29:21.321Z,65.60
2019-02-02T01:29:57.517Z,64.87
2019-02-02T01:30:33.604Z,65.04
2019-02-02T01:31:09.746Z,64.79
2019-02-02T01:31:45.946Z,64.79
2019-02-02T01:32:22.280Z,64.92
2019-02-02T01:32:58.472Z,64.87
2019-02-02T01:33:34.619Z,64.77
2019-02-02T01:34:10.646Z,64.60
2019-02-02T01:34:46.661Z,64.50
2019-02-02T01:35:22.935Z,64.37
2019-02-02T01:35:59.009Z,64.32
2019-02-02T01:36:35.139Z,64.24
2019-02-02T01:37:11.179Z,64.35
2019-02-02T01:37:47.365Z,64.35
2019-02-02T01:38:23.592Z,64.08
2019-02-02T01:38:59.740Z,63.54
2019-02-02T01:39:35.752Z,63.54
2019-02-02T01:40:14.534Z,63.87
2019-02-02T01:40:50.690Z,63.77
2019-02-02T01:41:26.750Z,63.77
2019-02-02T01:42:02.869Z,63.68
2019-02-02T01:42:39.127Z,63.56
2019-02-02T01:43:15.283Z,63.54
2019-02-02T01:43:51.343Z,63.50
2019-02-02T01:44:27.742Z,63.41
2019-02-02T01:45:03.724Z,63.22
2019-02-02T01:45:39.655Z,63.10
2019-02-02T01:46:15.666Z,63.03
2019-02-02T01:46:51.591Z,62.94
2019-02-02T01:47:27.590Z,62.95
2019-02-02T01:48:03.649Z,62.85
2019-02-02T01:48:39.954Z,62.78
2019-02-02T01:49:16.011Z,62.73
2019-02-02T01:49:51.973Z,62.72
2019-02-02T01:50:28.182Z,62.63
2019-02-02T01:51:04.337Z,62.60
2019-02-02T01:51:40.507Z,62.56
2019-02-02T01:52:16.747Z,62.51
2019-02-02T01:52:52.801Z,62.47
2019-02-02T01:53:28.926Z,62.42
2019-02-02T01:54:05.008Z,62.42
2019-02-02T01:54:41.149Z,62.41
2019-02-02T01:55:17.775Z,62.26
2019-02-02T01:55:53.896Z,62.25
2019-02-02T01:56:29.849Z,62.23
2019-02-02T01:57:06.035Z,62.18
2019-02-02T01:57:42.497Z,62.10
2019-02-02T01:58:18.510Z,61.93
2019-02-02T01:58:54.610Z,61.80
2019-02-02T01:59:30.633Z,61.88
2019-02-02T02:00:07.532Z,61.83
2019-02-02T02:00:43.729Z,61.83
2019-02-02T02:01:20.075Z,61.85
2019-02-02T02:01:56.357Z,61.67
2019-02-02T02:02:32.392Z,61.65
2019-02-02T02:03:08.539Z,61.60
2019-02-02T02:03:44.804Z,61.48
2019-02-02T02:04:21.008Z,61.36
2019-02-02T02:04:57.260Z,61.26
2019-02-02T02:05:33.309Z,61.26
2019-02-02T02:06:09.359Z,61.26
2019-02-02T02:06:45.461Z,61.26
2019-02-02T02:07:21.375Z,61.21
2019-02-02T02:07:57.359Z,61.13
2019-02-02T02:08:33.443Z,60.86
2019-02-02T02:09:10.321Z,60.72
2019-02-02T02:09:46.348Z,60.51
2019-02-02T02:10:22.704Z,60.33
2019-02-02T02:10:58.992Z,60.25
2019-02-02T02:11:35.188Z,60.04
2019-02-02T02:12:11.229Z,59.96
2019-02-02T02:12:47.407Z,60.03
2019-02-02T02:13:23.460Z,60.08
2019-02-02T02:13:59.512Z,60.12
2019-02-02T02:14:35.492Z,60.23
2019-02-02T02:15:13.811Z,60.25
2019-02-02T02:15:49.859Z,60.32
2019-02-02T02:16:25.817Z,60.36
2019-02-02T02:17:01.839Z,60.39
2019-02-02T02:17:37.874Z,60.45
2019-02-02T02:18:13.945Z,60.43
2019-02-02T02:18:50.001Z,60.38
2019-02-02T02:19:26.027Z,60.24
2019-02-02T02:20:02.119Z,60.07
2019-02-02T02:20:38.060Z,60.04
2019-02-02T02:21:14.267Z,59.92
2019-02-02T02:21:50.251Z,60.01
2019-02-02T02:22:26.274Z,60.00
2019-02-02T02:23:02.275Z,59.95
2019-02-02T02:23:38.348Z,59.84
2019-02-02T02:24:14.468Z,59.67
2019-02-02T02:24:50.584Z,59.58
2019-02-02T02:25:26.531Z,59.46
2019-02-02T02:26:02.487Z,59.25
2019-02-02T02:26:38.686Z,59.14
2019-02-02T02:27:14.930Z,59.06
2019-02-02T02:27:51.098Z,58.99
2019-02-02T02:28:28.433Z,58.83
2019-02-02T02:29:04.729Z,58.83
2019-02-02T02:29:41.944Z,58.80
2019-02-02T02:30:22.315Z,58.79
2019-02-02T02:30:58.336Z,58.72
2019-02-02T02:31:34.264Z,58.72
2019-02-02T02:32:10.351Z,58.69
2019-02-02T02:32:46.450Z,58.71
2019-02-02T02:33:22.456Z,58.70
2019-02-02T02:33:58.677Z,58.54
2019-02-02T02:34:34.620Z,58.29
2019-02-02T02:35:10.712Z,58.10
2019-02-02T02:35:47.582Z,57.98
2019-02-02T02:36:23.562Z,57.84
2019-02-02T02:36:59.656Z,57.70
2019-02-02T02:37:35.719Z,57.67
2019-02-02T02:38:11.675Z,57.66
2019-02-02T02:38:47.745Z,57.76
2019-02-02T02:39:23.972Z,57.90
2019-02-02T02:40:00.030Z,57.92
2019-02-02T02:40:36.316Z,57.86
2019-02-02T02:41:12.282Z,57.87
2019-02-02T02:41:48.271Z,57.86
2019-02-02T02:42:24.216Z,57.84
2019-02-02T02:43:00.137Z,57.82
2019-02-02T02:43:36.123Z,57.90
2019-02-02T02:44:12.434Z,57.90
2019-02-02T02:44:48.458Z,57.92
2019-02-02T02:45:24.680Z,57.91
2019-02-02T02:46:00.651Z,57.94
2019-02-02T02:46:36.724Z,58.07
2019-02-02T02:47:12.921Z,57.98
2019-02-02T02:47:49.259Z,58.00
2019-02-02T02:48:25.536Z,58.07
2019-02-02T02:49:01.516Z,58.19
2019-02-02T02:49:37.628Z,58.16
2019-02-02T02:50:15.625Z,58.19
2019-02-02T02:50:51.526Z,58.22
2019-02-02T02:51:27.516Z,58.02
2019-02-02T02:52:03.691Z,57.96
2019-02-02T02:52:39.847Z,57.69
2019-02-02T02:53:16.079Z,57.77
2019-02-02T02:53:52.144Z,57.83
2019-02-02T02:54:28.174Z,57.92
2019-02-02T02:55:05.965Z,58.07
2019-02-02T02:55:42.135Z,58.16
2019-02-02T02:56:18.262Z,58.17
2019-02-02T02:56:54.543Z,58.14
2019-02-02T02:57:30.689Z,57.98
2019-02-02T02:58:07.048Z,58.01
2019-02-02T02:58:42.993Z,58.10
2019-02-02T02:59:19.039Z,58.09
2019-02-02T02:59:55.128Z,58.24
2019-02-02T03:00:31.251Z,58.22
2019-02-02T03:01:07.405Z,58.25
2019-02-02T03:01:43.476Z,58.33
2019-02-02T03:02:19.464Z,58.36
2019-02-02T03:02:55.698Z,58.44
2019-02-02T03:03:31.967Z,58.37
2019-02-02T03:04:08.182Z,58.32
2019-02-02T03:04:44.371Z,58.29
2019-02-02T03:05:20.717Z,58.25
2019-02-02T03:05:56.884Z,58.13
2019-02-02T03:06:33.049Z,57.95
2019-02-02T03:07:09.049Z,57.90
2019-02-02T03:07:45.153Z,57.82
2019-02-02T03:08:21.393Z,57.78
2019-02-02T03:08:57.396Z,57.71
2019-02-02T03:09:33.424Z,57.61
2019-02-02T03:10:11.246Z,57.52
2019-02-02T03:10:47.364Z,57.48
2019-02-02T03:11:23.418Z,57.38
2019-02-02T03:11:59.662Z,57.42
2019-02-02T03:12:35.564Z,57.38
2019-02-02T03:13:11.571Z,57.32
2019-02-02T03:13:47.826Z,57.31
2019-02-02T03:14:24.459Z,57.43
2019-02-02T03:15:00.473Z,57.48
2019-02-02T03:15:36.577Z,57.55
2019-02-02T03:16:12.639Z,57.65
2019-02-02T03:16:48.736Z,57.72
2019-02-02T03:17:24.982Z,57.71
2019-02-02T03:18:01.127Z,57.68
2019-02-02T03:18:37.419Z,57.68
2019-02-02T03:19:13.500Z,57.73
2019-02-02T03:19:49.558Z,57.77
2019-02-02T03:20:25.510Z,57.81
2019-02-02T03:21:01.760Z,57.86
2019-02-02T03:21:37.970Z,57.88
2019-02-02T03:22:14.218Z,57.84
2019-02-02T03:22:50.381Z,57.70
2019-02-02T03:23:26.442Z,57.49
2019-02-02T03:24:02.517Z,57.44
2019-02-02T03:24:38.659Z,57.39
2019-02-02T03:25:16.924Z,57.35
2019-02-02T03:25:52.995Z,57.36
2019-02-02T03:26:29.046Z,57.38
2019-02-02T03:27:05.386Z,57.40
2019-02-02T03:27:41.578Z,57.40
2019-02-02T03:28:17.716Z,57.35
2019-02-02T03:28:53.947Z,57.32
2019-02-02T03:29:30.142Z,57.31
2019-02-02T03:30:06.913Z,57.29
2019-02-02T03:30:43.002Z,57.26
2019-02-02T03:31:19.056Z,57.34
2019-02-02T03:31:55.243Z,57.33
2019-02-02T03:32:31.395Z,57.31
2019-02-02T03:33:07.477Z,57.33
2019-02-02T03:33:43.756Z,57.39
2019-02-02T03:34:19.819Z,57.38
2019-02-02T03:34:56.147Z,57.37
2019-02-02T03:35:32.297Z,57.40
2019-02-02T03:36:08.327Z,57.36
2019-02-02T03:36:44.490Z,57.31
2019-02-02T03:37:20.635Z,57.19
2019-02-02T03:37:56.674Z,57.15
2019-02-02T03:38:32.569Z,57.09
2019-02-02T03:39:12.649Z,57.07
2019-02-02T03:39:48.772Z,57.05
2019-02-02T03:40:25.400Z,57.04
2019-02-02T03:41:01.420Z,57.01
2019-02-02T03:41:37.462Z,56.94
2019-02-02T03:42:13.556Z,56.97
2019-02-02T03:42:49.928Z,56.95
2019-02-02T03:43:26.206Z,56.86
2019-02-02T03:44:02.363Z,56.74
2019-02-02T03:44:38.540Z,56.61
2019-02-02T03:45:15.844Z,56.41
2019-02-02T03:45:52.006Z,56.29
2019-02-02T03:46:27.951Z,56.17
2019-02-02T03:47:03.972Z,56.09
2019-02-02T03:47:40.052Z,56.04
2019-02-02T03:48:15.953Z,55.94
2019-02-02T03:48:51.894Z,55.77
2019-02-02T03:49:27.912Z,55.65
2019-02-02T03:50:03.920Z,55.28
2019-02-02T03:50:39.898Z,55.18
2019-02-02T03:51:15.961Z,55.24
2019-02-02T03:51:52.071Z,55.32
2019-02-02T03:52:28.158Z,55.33
2019-02-02T03:53:04.063Z,55.28
2019-02-02T03:53:41.384Z,54.98
2019-02-02T03:54:17.613Z,54.80
2019-02-02T03:54:53.720Z,54.81
2019-02-02T03:55:29.811Z,54.86
2019-02-02T03:56:06.074Z,54.84
2019-02-02T03:56:42.241Z,54.86
2019-02-02T03:57:18.513Z,54.87
2019-02-02T03:57:54.750Z,54.83
2019-02-02T03:58:30.881Z,54.83
2019-02-02T03:59:07.281Z,54.80
2019-02-02T03:59:43.454Z,54.79
2019-02-02T04:00:21.151Z,54.67
2019-02-02T04:00:57.446Z,54.60
2019-02-02T04:01:33.585Z,54.45
2019-02-02T04:02:09.616Z,54.24
2019-02-02T04:02:45.728Z,54.18
2019-02-02T04:03:21.808Z,54.18
2019-02-02T04:03:57.998Z,54.15
2019-02-02T04:04:34.294Z,54.03
2019-02-02T04:05:13.177Z,53.84
2019-02-02T04:05:49.604Z,53.74
2019-02-02T04:06:26.202Z,53.58
2019-02-02T04:07:02.768Z,53.50
2019-02-02T04:07:39.185Z,53.42
2019-02-02T04:08:15.379Z,53.35
2019-02-02T04:08:51.569Z,53.20
2019-02-02T04:09:27.569Z,53.03
2019-02-02T04:10:03.661Z,52.89
2019-02-02T04:10:39.652Z,52.68
2019-02-02T04:11:15.679Z,52.39
2019-02-02T04:11:51.724Z,52.24
2019-02-02T04:12:27.925Z,52.17
2019-02-02T04:13:03.883Z,52.17
2019-02-02T04:13:39.927Z,52.31
2019-02-02T04:14:15.966Z,52.23
2019-02-02T04:14:52.008Z,52.18
2019-02-02T04:15:28.114Z,52.22
2019-02-02T04:16:04.264Z,52.38
2019-02-02T04:16:40.244Z,52.29
2019-02-02T04:17:16.283Z,52.20
2019-02-02T04:17:52.827Z,51.98
2019-02-02T04:18:28.927Z,51.85
2019-02-02T04:19:05.096Z,51.72
2019-02-02T04:19:41.311Z,51.57
2019-02-02T04:20:19.410Z,51.78
2019-02-02T04:20:55.500Z,51.60
2019-02-02T04:21:31.537Z,51.30
2019-02-02T04:22:07.752Z,51.04
2019-02-02T04:22:43.893Z,50.66
2019-02-02T04:23:20.078Z,50.62
2019-02-02T04:23:56.165Z,50.67
2019-02-02T04:24:32.149Z,50.50
2019-02-02T04:25:08.668Z,50.30
2019-02-02T04:25:44.874Z,50.10
2019-02-02T04:26:21.031Z,50.07
2019-02-02T04:26:57.085Z,50.23
2019-02-02T04:27:33.065Z,50.28
2019-02-02T04:28:09.184Z,50.19
2019-02-02T04:28:45.351Z,49.98
2019-02-02T04:29:21.572Z,49.92
2019-02-02T04:29:57.695Z,50.12
2019-02-02T04:30:33.824Z,50.39
2019-02-02T04:31:11.678Z,50.68
2019-02-02T04:31:47.891Z,51.02
2019-02-02T04:32:24.123Z,51.15
2019-02-02T04:33:00.279Z,51.17
2019-02-02T04:33:36.385Z,51.21
2019-02-02T04:34:12.624Z,51.18
2019-02-02T04:34:48.613Z,51.13
2019-02-02T04:35:24.741Z,51.02
2019-02-02T04:36:00.793Z,51.09
2019-02-02T04:36:37.010Z,51.16
2019-02-02T04:37:13.219Z,51.40
2019-02-02T04:37:49.195Z,51.50
2019-02-02T04:38:25.343Z,51.41
2019-02-02T04:39:01.611Z,51.38
2019-02-02T04:39:37.746Z,51.29
2019-02-02T04:40:14.520Z,51.22
2019-02-02T04:40:50.756Z,51.24
2019-02-02T04:41:26.764Z,51.21
2019-02-02T04:42:02.770Z,51.23
2019-02-02T04:42:38.864Z,51.26
2019-02-02T04:43:15.029Z,51.34
2019-02-02T04:43:51.037Z,51.29
2019-02-02T04:44:27.164Z,51.27
2019-02-02T04:45:03.259Z,51.22
2019-02-02T04:45:39.451Z,51.21
2019-02-02T04:46:15.556Z,51.54
2019-02-02T04:46:51.566Z,51.62
2019-02-02T04:47:27.725Z,51.70
2019-02-02T04:48:04.007Z,51.56
2019-02-02T04:48:40.150Z,51.69
2019-02-02T04:49:16.238Z,51.68
2019-02-02T04:49:52.181Z,51.64
2019-02-02T04:50:28.367Z,51.63
2019-02-02T04:51:04.602Z,51.56
2019-02-02T04:51:40.643Z,51.43
2019-02-02T04:52:16.710Z,51.37
2019-02-02T04:52:52.671Z,51.33
2019-02-02T04:53:28.637Z,51.26
2019-02-02T04:54:04.658Z,51.35
2019-02-02T04:54:40.673Z,51.49
2019-02-02T04:55:17.968Z,51.50
2019-02-02T04:55:53.993Z,51.48
2019-02-02T04:56:30.107Z,51.46
2019-02-02T04:57:06.218Z,51.22
2019-02-02T04:57:42.293Z,51.05
2019-02-02T04:58:18.543Z,51.02
2019-02-02T04:58:54.583Z,50.92
2019-02-02T04:59:30.645Z,50.66
2019-02-02T05:00:08.350Z,50.30
2019-02-02T05:00:44.618Z,50.27
2019-02-02T05:01:20.749Z,50.40
2019-02-02T05:01:56.993Z,50.56
2019-02-02T05:02:33.113Z,50.68
2019-02-02T05:03:09.311Z,50.77
2019-02-02T05:03:45.387Z,50.76
2019-02-02T05:04:21.384Z,50.81
2019-02-02T05:04:57.306Z,50.45
2019-02-02T05:05:33.343Z,50.30
2019-02-02T05:06:09.614Z,50.01
2019-02-02T05:06:45.699Z,49.79
2019-02-02T05:07:21.683Z,49.81
2019-02-02T05:07:57.829Z,49.84
2019-02-02T05:08:33.933Z,49.96
2019-02-02T05:09:10.716Z,50.07
2019-02-02T05:09:46.711Z,50.16
2019-02-02T05:10:23.361Z,50.23
2019-02-02T05:10:59.328Z,50.30
2019-02-02T05:11:35.386Z,50.35
2019-02-02T05:12:11.340Z,50.33
2019-02-02T05:12:47.373Z,50.28
2019-02-02T05:13:23.476Z,50.38
2019-02-02T05:13:59.505Z,50.50
2019-02-02T05:14:35.722Z,50.73
2019-02-02T05:15:11.879Z,51.22
2019-02-02T05:15:47.846Z,51.09
2019-02-02T05:16:24.134Z,51.17
2019-02-02T05:17:00.296Z,51.30
2019-02-02T05:17:37.034Z,51.12
2019-02-02T05:18:13.188Z,51.00
2019-02-02T05:18:49.420Z,50.99
2019-02-02T05:19:25.443Z,51.01
2019-02-02T05:20:01.732Z,50.93
2019-02-02T05:20:37.976Z,50.83
2019-02-02T05:21:14.005Z,50.71
2019-02-02T05:21:50.377Z,50.63
2019-02-02T05:22:26.469Z,50.66
2019-02-02T05:23:02.519Z,50.67
2019-02-02T05:23:38.698Z,50.52
2019-02-02T05:24:14.685Z,50.44
2019-02-02T05:24:50.710Z,50.38
2019-02-02T05:25:26.697Z,50.47
2019-02-02T05:26:02.662Z,50.42
2019-02-02T05:26:38.699Z,50.39
2019-02-02T05:27:14.888Z,50.30
2019-02-02T05:27:50.958Z,50.19
2019-02-02T05:28:27.039Z,49.95
2019-02-02T05:29:03.186Z,49.79
2019-02-02T05:29:41.603Z,49.67
2019-02-02T05:30:25.303Z,49.41
2019-02-02T05:31:01.552Z,49.01
2019-02-02T05:31:38.103Z,48.84
2019-02-02T05:32:14.277Z,49.13
2019-02-02T05:32:50.282Z,48.92
2019-02-02T05:33:26.247Z,48.88
2019-02-02T05:34:02.301Z,48.84
2019-02-02T05:34:38.407Z,48.75
2019-02-02T05:35:14.573Z,48.57
2019-02-02T05:35:50.651Z,48.44
2019-02-02T05:36:26.599Z,48.42
2019-02-02T05:37:02.632Z,48.29
2019-02-02T05:37:38.768Z,48.15
2019-02-02T05:38:14.933Z,47.62
2019-02-02T05:38:50.918Z,47.22
2019-02-02T05:39:27.027Z,46.37
2019-02-02T05:40:03.249Z,46.36
2019-02-02T05:40:39.420Z,46.37
2019-02-02T05:41:15.676Z,46.51
2019-02-02T05:41:51.892Z,46.37
2019-02-02T05:42:27.887Z,46.04
2019-02-02T05:43:04.061Z,45.77
2019-02-02T05:43:40.085Z,45.65
2019-02-02T05:44:16.018Z,45.82
2019-02-02T05:44:52.203Z,46.18
2019-02-02T05:45:28.363Z,46.35
2019-02-02T05:46:04.461Z,46.54
2019-02-02T05:46:40.735Z,46.51
2019-02-02T05:47:16.794Z,46.53
2019-02-02T05:47:52.935Z,46.59
2019-02-02T05:48:29.164Z,46.19
2019-02-02T05:49:05.340Z,45.69
2019-02-02T05:49:41.390Z,45.74
2019-02-02T05:50:19.449Z,45.87
2019-02-02T05:50:55.534Z,45.86
2019-02-02T05:51:31.777Z,45.80
2019-02-02T05:52:08.024Z,45.43
2019-02-02T05:52:44.151Z,45.32
2019-02-02T05:53:20.287Z,45.19
2019-02-02T05:53:56.266Z,45.16
2019-02-02T05:54:32.207Z,45.23
2019-02-02T05:55:09.631Z,45.42
2019-02-02T05:55:45.633Z,45.40
2019-02-02T05:56:21.773Z,45.27
2019-02-02T05:56:58.035Z,45.45
2019-02-02T05:57:34.396Z,45.48
2019-02-02T05:58:10.552Z,45.75
2019-02-02T05:58:46.549Z,45.89
2019-02-02T05:59:22.817Z,45.72
2019-02-02T05:59:58.830Z,45.62
2019-02-02T06:00:43.867Z,45.70
2019-02-02T06:01:20.505Z,45.65
2019-02-02T06:01:56.442Z,45.67
2019-02-02T06:02:32.450Z,45.57
2019-02-02T06:03:08.490Z,45.47
2019-02-02T06:03:44.481Z,45.33
2019-02-02T06:04:20.464Z,45.11
2019-02-02T06:04:56.518Z,44.92
2019-02-02T06:05:32.719Z,44.80
2019-02-02T06:06:08.695Z,44.99
2019-02-02T06:06:44.861Z,45.10
2019-02-02T06:07:21.167Z,45.22
2019-02-02T06:07:57.187Z,45.47
2019-02-02T06:08:33.274Z,45.63
2019-02-02T06:09:10.236Z,45.64
2019-02-02T06:09:46.276Z,45.46
2019-02-02T06:10:22.466Z,45.32
2019-02-02T06:10:58.481Z,45.32
2019-02-02T06:11:34.685Z,45.32
2019-02-02T06:12:11.252Z,45.14
2019-02-02T06:12:47.360Z,45.11
2019-02-02T06:13:23.432Z,44.90
2019-02-02T06:13:59.641Z,44.83
2019-02-02T06:14:35.748Z,45.03
2019-02-02T06:15:12.094Z,45.03
2019-02-02T06:15:48.293Z,44.92
2019-02-02T06:16:24.410Z,45.00
2019-02-02T06:17:00.481Z,45.08
2019-02-02T06:17:36.585Z,45.05
2019-02-02T06:18:12.858Z,44.98
2019-02-02T06:18:48.987Z,44.97
2019-02-02T06:19:24.983Z,44.89
2019-02-02T06:20:01.210Z,44.94
2019-02-02T06:20:37.384Z,45.21
2019-02-02T06:21:13.654Z,45.36
2019-02-02T06:21:49.980Z,45.65
2019-02-02T06:22:26.199Z,45.77
2019-02-02T06:23:02.350Z,45.68
2019-02-02T06:23:38.630Z,45.53
2019-02-02T06:24:14.751Z,45.30
2019-02-02T06:24:52.755Z,45.01
2019-02-02T06:25:28.979Z,44.79
2019-02-02T06:26:05.108Z,44.63
2019-02-02T06:26:41.333Z,44.42
2019-02-02T06:27:17.287Z,44.43
2019-02-02T06:27:53.307Z,44.44
2019-02-02T06:28:29.290Z,44.56
2019-02-02T06:29:05.499Z,44.78
2019-02-02T06:29:41.571Z,44.83
2019-02-02T06:30:19.075Z,44.77
2019-02-02T06:30:55.370Z,44.54
2019-02-02T06:31:31.567Z,44.85
2019-02-02T06:32:11.816Z,45.07
2019-02-02T06:32:45.440Z,44.83
2019-02-02T06:33:21.664Z,44.75
2019-02-02T06:33:57.793Z,44.79
2019-02-02T06:34:33.986Z,44.81
2019-02-02T06:35:11.710Z,44.90
2019-02-02T06:35:47.780Z,44.86
2019-02-02T06:36:23.866Z,44.76
2019-02-02T06:37:00.201Z,44.55
2019-02-02T06:37:36.231Z,44.33
2019-02-02T06:38:12.320Z,44.24
2019-02-02T06:38:48.551Z,44.26
2019-02-02T06:39:24.617Z,44.17
2019-02-02T06:40:00.884Z,44.09
2019-02-02T06:40:37.184Z,43.99
2019-02-02T06:41:13.616Z,43.97
2019-02-02T06:41:49.776Z,44.01
2019-02-02T06:42:25.887Z,44.19
2019-02-02T06:43:01.889Z,44.47
2019-02-02T06:43:38.034Z,44.73
2019-02-02T06:44:14.362Z,44.95
2019-02-02T06:44:50.473Z,45.06
2019-02-02T06:45:29.078Z,45.33
2019-02-02T06:46:05.220Z,45.43
2019-02-02T06:46:43.617Z,45.41
2019-02-02T06:47:19.232Z,45.18
2019-02-02T06:47:57.053Z,45.12
2019-02-02T06:48:33.296Z,45.05
2019-02-02T06:49:09.544Z,45.17
2019-02-02T06:49:45.740Z,45.22
2019-02-02T06:50:21.851Z,45.47
2019-02-02T06:50:57.865Z,45.63
2019-02-02T06:51:33.975Z,45.65
2019-02-02T06:52:10.001Z,45.64
2019-02-02T06:52:46.146Z,45.58
2019-02-02T06:53:22.395Z,45.50
2019-02-02T06:53:58.490Z,45.44
2019-02-02T06:54:34.633Z,45.47
2019-02-02T06:55:11.479Z,45.54
2019-02-02T06:55:47.396Z,45.57
2019-02-02T06:56:23.642Z,45.69
2019-02-02T06:56:59.761Z,45.88
2019-02-02T06:57:35.816Z,46.26
2019-02-02T06:58:11.810Z,47.09
2019-02-02T06:58:48.054Z,48.41
2019-02-02T06:59:24.034Z,48.74
2019-02-02T07:00:00.017Z,48.97
2019-02-02T07:00:36.087Z,49.17
2019-02-02T07:01:12.382Z,49.37
2019-02-02T07:01:48.555Z,49.49
2019-02-02T07:02:24.631Z,49.57
2019-02-02T07:03:00.744Z,49.82
2019-02-02T07:03:36.883Z,49.89
2019-02-02T07:04:12.930Z,49.92
2019-02-02T07:04:49.053Z,49.85
2019-02-02T07:05:25.379Z,49.65
2019-02-02T07:06:01.464Z,49.45
2019-02-02T07:06:37.602Z,49.29
2019-02-02T07:07:13.617Z,49.05
2019-02-02T07:07:49.843Z,48.96
2019-02-02T07:08:25.859Z,49.08
2019-02-02T07:09:01.840Z,48.89
2019-02-02T07:09:37.926Z,48.80
2019-02-02T07:10:16.782Z,48.82
2019-02-02T07:10:52.792Z,48.85
2019-02-02T07:11:28.736Z,48.84
2019-02-02T07:12:04.690Z,48.84
2019-02-02T07:12:40.731Z,48.79
2019-02-02T07:13:16.613Z,48.71
2019-02-02T07:13:52.618Z,48.87
2019-02-02T07:14:28.661Z,48.99
2019-02-02T07:15:04.571Z,48.95
2019-02-02T07:15:40.504Z,48.94
2019-02-02T07:16:16.479Z,49.02
2019-02-02T07:16:52.470Z,49.19
2019-02-02T07:17:28.460Z,49.35
2019-02-02T07:18:04.426Z,49.54
2019-02-02T07:18:40.515Z,49.62
2019-02-02T07:19:16.710Z,49.33
2019-02-02T07:19:52.646Z,48.92
2019-02-02T07:20:28.694Z,48.68
2019-02-02T07:21:04.606Z,48.49
2019-02-02T07:21:40.669Z,48.41
2019-02-02T07:22:16.643Z,48.35
2019-02-02T07:22:52.709Z,48.61
2019-02-02T07:23:28.618Z,49.19
2019-02-02T07:24:04.555Z,49.35
2019-02-02T07:24:40.559Z,50.25
2019-02-02T07:25:16.753Z,51.27
2019-02-02T07:25:52.803Z,51.78
2019-02-02T07:26:28.903Z,52.15
2019-02-02T07:27:04.992Z,52.55
2019-02-02T07:27:41.064Z,52.98
2019-02-02T07:28:17.149Z,53.25
2019-02-02T07:28:53.204Z,53.58
2019-02-02T07:29:29.311Z,53.65
2019-02-02T07:30:06.292Z,53.72
2019-02-02T07:30:42.406Z,53.86
2019-02-02T07:31:18.528Z,53.99
2019-02-02T07:31:54.490Z,54.42
2019-02-02T07:32:30.495Z,54.49
2019-02-02T07:33:06.575Z,54.63
2019-02-02T07:33:42.610Z,54.51
2019-02-02T07:34:18.721Z,54.51
2019-02-02T07:34:54.886Z,54.44
2019-02-02T07:35:31.444Z,54.46
2019-02-02T07:36:07.496Z,54.43
2019-02-02T07:36:43.432Z,54.25
2019-02-02T07:37:19.566Z,54.21
2019-02-02T07:37:55.687Z,54.11
2019-02-02T07:38:31.807Z,54.06
2019-02-02T07:39:09.534Z,54.08
2019-02-02T07:39:45.542Z,54.03
2019-02-02T07:40:21.647Z,54.04
2019-02-02T07:40:57.848Z,54.20
2019-02-02T07:41:33.969Z,54.12
2019-02-02T07:42:10.170Z,54.19
2019-02-02T07:42:46.269Z,54.16
2019-02-02T07:43:22.244Z,54.15
2019-02-02T07:43:58.374Z,54.20
2019-02-02T07:44:34.455Z,54.26
2019-02-02T07:45:36.660Z,54.33
2019-02-02T07:46:14.996Z,54.36
2019-02-02T07:46:50.609Z,54.71
2019-02-02T07:47:26.715Z,54.73
2019-02-02T07:48:02.824Z,54.72